sensor_id;sensor_type;location;lat;lon;timestamp;pressure;altitude;pressure_sealevel;temperature;humidity
62164;BME280;48149;51.132;7.178;2022-10-31T00:01:47;99174.13;;;20.19;83.41
62164;BME280;48149;51.132;7.178;2022-10-31T00:04:14;99179.78;;;19.71;87.17
62164;BME280;48149;51.132;7.178;2022-10-31T00:06:39;99180.06;;;19.75;86.39
62164;BME280;48149;51.132;7.178;2022-10-31T00:09:05;99177.00;;;20.03;85.75
62164;BME280;48149;51.132;7.178;2022-10-31T00:11:30;99176.97;;;19.41;88.74
62164;BME280;48149;51.132;7.178;2022-10-31T00:13:56;99183.47;;;19.65;88.13
62164;BME280;48149;51.132;7.178;2022-10-31T00:16:24;99178.59;;;19.47;89.64
62164;BME280;48149;51.132;7.178;2022-10-31T00:18:49;99182.16;;;19.67;87.39
62164;BME280;48149;51.132;7.178;2022-10-31T00:21:16;99174.63;;;19.54;88.18
62164;BME280;48149;51.132;7.178;2022-10-31T00:23:41;99185.66;;;19.36;89.79
62164;BME280;48149;51.132;7.178;2022-10-31T00:26:07;99165.22;;;19.89;87.44
62164;BME280;48149;51.132;7.178;2022-10-31T00:28:33;99178.03;;;19.45;87.35
62164;BME280;48149;51.132;7.178;2022-10-31T00:31:02;99179.44;;;19.21;90.89
62164;BME280;48149;51.132;7.178;2022-10-31T00:33:27;99169.19;;;19.34;90.61
62164;BME280;48149;51.132;7.178;2022-10-31T00:35:52;99166.88;;;19.06;93.67
62164;BME280;48149;51.132;7.178;2022-10-31T00:38:18;99170.66;;;19.15;92.14
62164;BME280;48149;51.132;7.178;2022-10-31T00:40:43;99165.16;;;18.36;96.63
62164;BME280;48149;51.132;7.178;2022-10-31T00:43:08;99168.72;;;18.74;95.42
62164;BME280;48149;51.132;7.178;2022-10-31T00:45:33;99169.56;;;19.11;89.00
62164;BME280;48149;51.132;7.178;2022-10-31T00:47:59;99174.72;;;19.28;88.35
62164;BME280;48149;51.132;7.178;2022-10-31T00:50:24;99171.06;;;19.39;87.19
62164;BME280;48149;51.132;7.178;2022-10-31T00:52:49;99164.06;;;19.64;86.50
62164;BME280;48149;51.132;7.178;2022-10-31T00:55:15;99154.34;;;19.01;91.61
62164;BME280;48149;51.132;7.178;2022-10-31T00:57:41;99166.88;;;19.06;93.90
62164;BME280;48149;51.132;7.178;2022-10-31T01:00:06;99176.06;;;19.30;93.18
62164;BME280;48149;51.132;7.178;2022-10-31T01:02:31;99175.50;;;19.65;90.70
62164;BME280;48149;51.132;7.178;2022-10-31T01:04:59;99176.34;;;19.76;91.28
62164;BME280;48149;51.132;7.178;2022-10-31T01:07:24;99187.50;;;19.73;90.39
62164;BME280;48149;51.132;7.178;2022-10-31T01:09:49;99209.34;;;19.43;91.84
62164;BME280;48149;51.132;7.178;2022-10-31T01:12:14;99206.19;;;19.46;93.13
62164;BME280;48149;51.132;7.178;2022-10-31T01:14:45;99208.03;;;19.40;93.70
62164;BME280;48149;51.132;7.178;2022-10-31T01:17:11;99199.47;;;19.01;96.37
62164;BME280;48149;51.132;7.178;2022-10-31T01:19:37;99204.25;;;18.99;97.18
62164;BME280;48149;51.132;7.178;2022-10-31T01:22:02;99200.22;;;19.65;92.07
62164;BME280;48149;51.132;7.178;2022-10-31T01:24:29;99202.72;;;19.45;92.51
62164;BME280;48149;51.132;7.178;2022-10-31T01:26:54;99194.47;;;19.05;95.60
62164;BME280;48149;51.132;7.178;2022-10-31T01:29:20;99191.59;;;19.11;96.11
62164;BME280;48149;51.132;7.178;2022-10-31T01:31:46;99193.34;;;19.01;94.58
62164;BME280;48149;51.132;7.178;2022-10-31T01:34:13;99184.22;;;18.55;100.00
62164;BME280;48149;51.132;7.178;2022-10-31T01:36:38;99178.16;;;19.70;93.03
62164;BME280;48149;51.132;7.178;2022-10-31T01:39:05;99167.97;;;20.04;90.04
62164;BME280;48149;51.132;7.178;2022-10-31T01:41:32;99168.22;;;19.97;91.53
62164;BME280;48149;51.132;7.178;2022-10-31T01:46:24;99156.88;;;19.23;96.72
62164;BME280;48149;51.132;7.178;2022-10-31T01:48:52;99158.19;;;19.57;94.32
62164;BME280;48149;51.132;7.178;2022-10-31T01:51:18;99157.88;;;19.44;95.27
62164;BME280;48149;51.132;7.178;2022-10-31T01:53:45;99157.94;;;19.54;95.31
62164;BME280;48149;51.132;7.178;2022-10-31T01:56:11;99160.56;;;19.54;95.23
62164;BME280;48149;51.132;7.178;2022-10-31T01:58:37;99148.28;;;19.43;96.65
62164;BME280;48149;51.132;7.178;2022-10-31T02:01:03;99137.41;;;19.07;99.17
62164;BME280;48149;51.132;7.178;2022-10-31T02:03:29;99148.00;;;19.02;100.00
62164;BME280;48149;51.132;7.178;2022-10-31T02:05:55;99144.72;;;18.90;98.69
62164;BME280;48149;51.132;7.178;2022-10-31T02:08:23;99134.81;;;18.49;100.00
62164;BME280;48149;51.132;7.178;2022-10-31T02:10:50;99133.44;;;17.93;100.00
62164;BME280;48149;51.132;7.178;2022-10-31T02:13:15;99134.78;;;17.95;100.00
62164;BME280;48149;51.132;7.178;2022-10-31T02:15:42;99133.25;;;18.26;100.00
62164;BME280;48149;51.132;7.178;2022-10-31T02:18:09;99133.53;;;18.25;100.00
62164;BME280;48149;51.132;7.178;2022-10-31T02:23:14;99132.66;;;18.46;100.00
62164;BME280;48149;51.132;7.178;2022-10-31T02:38:20;99137.69;;;17.72;100.00
62164;BME280;48149;51.132;7.178;2022-10-31T02:43:22;99137.59;;;18.10;100.00
62164;BME280;48149;51.132;7.178;2022-10-31T02:45:57;99150.59;;;18.39;100.00
62164;BME280;48149;51.132;7.178;2022-10-31T02:48:25;99147.72;;;18.67;99.24
62164;BME280;48149;51.132;7.178;2022-10-31T02:50:52;99156.97;;;18.64;100.00
62164;BME280;48149;51.132;7.178;2022-10-31T02:53:21;99158.06;;;18.42;100.00
62164;BME280;48149;51.132;7.178;2022-10-31T02:55:55;99153.94;;;18.51;100.00
62164;BME280;48149;51.132;7.178;2022-10-31T02:58:21;99158.84;;;18.64;99.66
62164;BME280;48149;51.132;7.178;2022-10-31T03:03:26;99156.84;;;18.01;100.00
62164;BME280;48149;51.132;7.178;2022-10-31T03:06:03;99162.63;;;17.76;100.00
62164;BME280;48149;51.132;7.178;2022-10-31T03:08:41;99174.31;;;18.24;100.00
62164;BME280;48149;51.132;7.178;2022-10-31T03:11:10;99172.75;;;18.49;100.00
62164;BME280;48149;51.132;7.178;2022-10-31T03:16:23;99161.94;;;18.34;100.00
62164;BME280;48149;51.132;7.178;2022-10-31T03:18:50;99164.03;;;17.62;100.00
62164;BME280;48149;51.132;7.178;2022-10-31T03:23:46;99165.84;;;17.23;100.00
62164;BME280;48149;51.132;7.178;2022-10-31T03:26:12;99160.25;;;17.20;100.00
62164;BME280;48149;51.132;7.178;2022-10-31T03:28:41;99165.41;;;17.48;100.00
62164;BME280;48149;51.132;7.178;2022-10-31T03:31:08;99173.03;;;17.28;100.00
62164;BME280;48149;51.132;7.178;2022-10-31T03:33:35;99162.63;;;17.76;100.00
62164;BME280;48149;51.132;7.178;2022-10-31T03:36:02;99167.44;;;17.79;100.00
62164;BME280;48149;51.132;7.178;2022-10-31T03:38:29;99161.19;;;17.69;100.00
62164;BME280;48149;51.132;7.178;2022-10-31T03:40:55;99154.41;;;17.56;100.00
62164;BME280;48149;51.132;7.178;2022-10-31T03:43:25;99168.47;;;18.00;100.00
62164;BME280;48149;51.132;7.178;2022-10-31T03:45:51;99161.31;;;18.49;100.00
62164;BME280;48149;51.132;7.178;2022-10-31T03:48:17;99160.56;;;18.53;100.00
62164;BME280;48149;51.132;7.178;2022-10-31T03:50:47;99151.28;;;18.51;100.00
62164;BME280;48149;51.132;7.178;2022-10-31T03:53:16;99143.50;;;18.18;100.00
62164;BME280;48149;51.132;7.178;2022-10-31T03:55:49;99153.03;;;18.19;100.00
62164;BME280;48149;51.132;7.178;2022-10-31T03:58:20;99156.16;;;18.59;100.00
62164;BME280;48149;51.132;7.178;2022-10-31T04:00:50;99157.06;;;19.06;100.00
62164;BME280;48149;51.132;7.178;2022-10-31T04:03:17;99157.28;;;18.68;100.00
62164;BME280;48149;51.132;7.178;2022-10-31T04:05:45;99158.59;;;18.44;100.00
62164;BME280;48149;51.132;7.178;2022-10-31T04:08:12;99162.72;;;18.56;100.00
62164;BME280;48149;51.132;7.178;2022-10-31T04:10:40;99159.34;;;17.91;100.00
62164;BME280;48149;51.132;7.178;2022-10-31T04:13:07;99155.31;;;18.32;100.00
62164;BME280;48149;51.132;7.178;2022-10-31T04:15:33;99149.78;;;18.60;100.00
62164;BME280;48149;51.132;7.178;2022-10-31T04:18:00;99153.25;;;17.90;100.00
62164;BME280;48149;51.132;7.178;2022-10-31T04:20:36;99152.03;;;17.76;100.00
62164;BME280;48149;51.132;7.178;2022-10-31T04:23:01;99146.47;;;17.78;100.00
62164;BME280;48149;51.132;7.178;2022-10-31T04:25:27;99159.53;;;18.54;100.00
62164;BME280;48149;51.132;7.178;2022-10-31T04:27:53;99150.56;;;18.92;99.03
62164;BME280;48149;51.132;7.178;2022-10-31T04:30:19;99145.44;;;19.12;98.26
62164;BME280;48149;51.132;7.178;2022-10-31T04:32:44;99146.09;;;18.66;100.00
62164;BME280;48149;51.132;7.178;2022-10-31T04:35:09;99149.19;;;18.04;100.00
62164;BME280;48149;51.132;7.178;2022-10-31T04:37:34;99146.44;;;18.48;100.00
62164;BME280;48149;51.132;7.178;2022-10-31T04:40:00;99142.41;;;18.40;100.00
62164;BME280;48149;51.132;7.178;2022-10-31T04:42:26;99145.66;;;18.47;100.00
62164;BME280;48149;51.132;7.178;2022-10-31T04:44:53;99135.84;;;18.48;100.00
62164;BME280;48149;51.132;7.178;2022-10-31T04:47:18;99136.44;;;18.01;100.00
62164;BME280;48149;51.132;7.178;2022-10-31T04:49:43;99138.59;;;18.53;100.00
62164;BME280;48149;51.132;7.178;2022-10-31T04:52:09;99139.84;;;18.77;100.00
62164;BME280;48149;51.132;7.178;2022-10-31T04:54:34;99144.22;;;18.61;100.00
62164;BME280;48149;51.132;7.178;2022-10-31T04:56:59;99145.47;;;18.54;100.00
62164;BME280;48149;51.132;7.178;2022-10-31T04:59:24;99142.94;;;19.01;99.02
62164;BME280;48149;51.132;7.178;2022-10-31T05:01:50;99138.09;;;18.88;97.80
62164;BME280;48149;51.132;7.178;2022-10-31T05:04:16;99127.53;;;18.66;100.00
62164;BME280;48149;51.132;7.178;2022-10-31T05:06:41;99132.59;;;18.41;100.00
62164;BME280;48149;51.132;7.178;2022-10-31T05:09:06;99122.81;;;18.15;100.00
62164;BME280;48149;51.132;7.178;2022-10-31T05:11:31;99119.72;;;18.49;100.00
62164;BME280;48149;51.132;7.178;2022-10-31T05:13:57;99111.72;;;18.76;100.00
62164;BME280;48149;51.132;7.178;2022-10-31T05:16:22;99113.59;;;18.22;100.00
62164;BME280;48149;51.132;7.178;2022-10-31T05:18:47;99102.97;;;18.17;100.00
62164;BME280;48149;51.132;7.178;2022-10-31T05:21:12;99096.97;;;18.90;100.00
62164;BME280;48149;51.132;7.178;2022-10-31T05:23:37;99109.50;;;18.09;100.00
62164;BME280;48149;51.132;7.178;2022-10-31T05:26:04;99099.19;;;19.03;100.00
62164;BME280;48149;51.132;7.178;2022-10-31T05:28:29;99102.44;;;18.79;100.00
62164;BME280;48149;51.132;7.178;2022-10-31T05:30:54;99089.47;;;18.77;100.00
62164;BME280;48149;51.132;7.178;2022-10-31T05:33:19;99094.47;;;18.47;100.00
62164;BME280;48149;51.132;7.178;2022-10-31T05:35:45;99093.84;;;18.98;100.00
62164;BME280;48149;51.132;7.178;2022-10-31T05:38:10;99088.75;;;18.55;100.00
62164;BME280;48149;51.132;7.178;2022-10-31T05:40:35;99090.31;;;18.24;100.00
62164;BME280;48149;51.132;7.178;2022-10-31T05:43:01;99090.66;;;18.33;100.00
62164;BME280;48149;51.132;7.178;2022-10-31T05:45:27;99091.25;;;18.40;100.00
62164;BME280;48149;51.132;7.178;2022-10-31T05:47:57;99094.75;;;17.92;100.00
62164;BME280;48149;51.132;7.178;2022-10-31T05:50:23;99096.88;;;18.75;100.00
62164;BME280;48149;51.132;7.178;2022-10-31T05:52:59;99093.75;;;18.51;100.00
62164;BME280;48149;51.132;7.178;2022-10-31T05:55:26;99094.44;;;18.42;100.00
62164;BME280;48149;51.132;7.178;2022-10-31T05:57:53;99086.03;;;18.82;100.00
62164;BME280;48149;51.132;7.178;2022-10-31T06:00:19;99096.78;;;18.38;100.00
62164;BME280;48149;51.132;7.178;2022-10-31T06:02:45;99101.75;;;18.56;100.00
62164;BME280;48149;51.132;7.178;2022-10-31T06:05:11;99092.22;;;18.55;100.00
62164;BME280;48149;51.132;7.178;2022-10-31T06:07:36;99100.91;;;18.51;100.00
62164;BME280;48149;51.132;7.178;2022-10-31T06:10:04;99088.94;;;18.48;100.00
62164;BME280;48149;51.132;7.178;2022-10-31T06:12:29;99087.56;;;18.73;99.55
62164;BME280;48149;51.132;7.178;2022-10-31T06:14:55;99083.84;;;18.74;100.00
62164;BME280;48149;51.132;7.178;2022-10-31T06:17:20;99083.88;;;17.67;100.00
62164;BME280;48149;51.132;7.178;2022-10-31T06:19:45;99089.16;;;18.47;100.00
62164;BME280;48149;51.132;7.178;2022-10-31T06:22:10;99094.72;;;18.40;100.00
62164;BME280;48149;51.132;7.178;2022-10-31T06:24:36;99089.78;;;18.54;100.00
62164;BME280;48149;51.132;7.178;2022-10-31T06:27:01;99094.91;;;18.07;100.00
62164;BME280;48149;51.132;7.178;2022-10-31T06:29:27;99088.63;;;18.45;100.00
62164;BME280;48149;51.132;7.178;2022-10-31T06:31:52;99089.09;;;18.37;100.00
62164;BME280;48149;51.132;7.178;2022-10-31T06:34:17;99099.00;;;18.20;100.00
62164;BME280;48149;51.132;7.178;2022-10-31T06:36:45;99097.78;;;18.91;100.00
62164;BME280;48149;51.132;7.178;2022-10-31T06:39:10;99099.00;;;19.20;98.21
62164;BME280;48149;51.132;7.178;2022-10-31T06:41:35;99097.13;;;18.74;99.81
62164;BME280;48149;51.132;7.178;2022-10-31T06:44:02;99095.75;;;19.08;100.00
62164;BME280;48149;51.132;7.178;2022-10-31T06:46:27;99098.47;;;19.13;99.23
62164;BME280;48149;51.132;7.178;2022-10-31T06:48:53;99102.22;;;18.85;100.00
62164;BME280;48149;51.132;7.178;2022-10-31T06:51:18;99099.25;;;18.77;100.00
62164;BME280;48149;51.132;7.178;2022-10-31T06:53:43;99106.00;;;18.94;100.00
62164;BME280;48149;51.132;7.178;2022-10-31T06:56:08;99103.41;;;18.36;100.00
62164;BME280;48149;51.132;7.178;2022-10-31T06:58:35;99105.22;;;18.94;99.58
62164;BME280;48149;51.132;7.178;2022-10-31T07:01:00;99098.66;;;18.70;100.00
62164;BME280;48149;51.132;7.178;2022-10-31T07:03:26;99102.38;;;19.00;100.00
62164;BME280;48149;51.132;7.178;2022-10-31T07:05:52;99106.69;;;19.16;100.00
62164;BME280;48149;51.132;7.178;2022-10-31T07:08:19;99103.72;;;19.50;96.90
62164;BME280;48149;51.132;7.178;2022-10-31T07:10:50;99105.69;;;18.86;100.00
62164;BME280;48149;51.132;7.178;2022-10-31T07:13:15;99115.72;;;19.62;96.41
62164;BME280;48149;51.132;7.178;2022-10-31T07:15:41;99106.16;;;19.56;96.31
62164;BME280;48149;51.132;7.178;2022-10-31T07:18:08;99111.31;;;19.88;94.84
62164;BME280;48149;51.132;7.178;2022-10-31T07:20:33;99107.06;;;19.35;99.64
62164;BME280;48149;51.132;7.178;2022-10-31T07:22:59;99104.06;;;19.22;100.00
62164;BME280;48149;51.132;7.178;2022-10-31T07:25:25;99107.75;;;19.62;96.98
62164;BME280;48149;51.132;7.178;2022-10-31T07:27:50;99109.09;;;19.70;100.00
62164;BME280;48149;51.132;7.178;2022-10-31T07:30:16;99095.53;;;19.14;100.00
62164;BME280;48149;51.132;7.178;2022-10-31T07:32:43;99090.44;;;19.08;100.00
62164;BME280;48149;51.132;7.178;2022-10-31T07:35:10;99095.75;;;19.50;99.43
62164;BME280;48149;51.132;7.178;2022-10-31T07:37:35;99101.25;;;19.38;100.00
62164;BME280;48149;51.132;7.178;2022-10-31T07:40:04;99102.16;;;19.59;99.86
62164;BME280;48149;51.132;7.178;2022-10-31T07:42:34;99099.59;;;19.84;99.53
62164;BME280;48149;51.132;7.178;2022-10-31T07:44:59;99099.03;;;19.77;98.38
62164;BME280;48149;51.132;7.178;2022-10-31T07:47:24;99113.41;;;19.81;98.59
62164;BME280;48149;51.132;7.178;2022-10-31T07:49:50;99102.41;;;20.45;95.28
62164;BME280;48149;51.132;7.178;2022-10-31T07:52:16;99117.28;;;20.41;94.06
62164;BME280;48149;51.132;7.178;2022-10-31T07:54:42;99125.28;;;20.81;92.68
62164;BME280;48149;51.132;7.178;2022-10-31T07:57:07;99125.53;;;20.39;93.94
62164;BME280;48149;51.132;7.178;2022-10-31T07:59:32;99133.81;;;20.83;90.56
62164;BME280;48149;51.132;7.178;2022-10-31T08:01:58;99128.47;;;20.48;94.07
62164;BME280;48149;51.132;7.178;2022-10-31T08:04:23;99121.25;;;20.33;93.10
62164;BME280;48149;51.132;7.178;2022-10-31T08:06:48;99131.41;;;20.77;91.12
62164;BME280;48149;51.132;7.178;2022-10-31T08:09:13;99124.75;;;20.64;90.98
62164;BME280;48149;51.132;7.178;2022-10-31T08:11:42;99127.16;;;20.50;94.94
62164;BME280;48149;51.132;7.178;2022-10-31T08:14:07;99130.34;;;20.77;91.89
62164;BME280;48149;51.132;7.178;2022-10-31T08:16:32;99129.28;;;20.73;92.34
62164;BME280;48149;51.132;7.178;2022-10-31T08:18:58;99136.19;;;20.95;90.89
62164;BME280;48149;51.132;7.178;2022-10-31T08:21:25;99128.75;;;20.66;92.62
62164;BME280;48149;51.132;7.178;2022-10-31T08:23:52;99121.81;;;21.21;88.27
62164;BME280;48149;51.132;7.178;2022-10-31T08:26:18;99120.22;;;21.20;89.74
62164;BME280;48149;51.132;7.178;2022-10-31T08:28:44;99122.59;;;20.46;93.99
62164;BME280;48149;51.132;7.178;2022-10-31T08:31:09;99121.00;;;20.90;90.71
62164;BME280;48149;51.132;7.178;2022-10-31T08:33:35;99120.22;;;20.90;93.65
62164;BME280;48149;51.132;7.178;2022-10-31T08:36:00;99115.41;;;21.22;89.59
62164;BME280;48149;51.132;7.178;2022-10-31T08:38:26;99110.25;;;21.61;86.47
62164;BME280;48149;51.132;7.178;2022-10-31T08:40:51;99101.19;;;21.62;86.48
62164;BME280;48149;51.132;7.178;2022-10-31T08:43:17;99100.91;;;22.17;83.45
62164;BME280;48149;51.132;7.178;2022-10-31T08:45:44;99108.72;;;21.40;87.26
62164;BME280;48149;51.132;7.178;2022-10-31T08:48:13;99099.47;;;21.81;83.51
62164;BME280;48149;51.132;7.178;2022-10-31T08:50:39;99097.88;;;22.29;82.76
62164;BME280;48149;51.132;7.178;2022-10-31T08:53:06;99092.44;;;22.44;81.22
62164;BME280;48149;51.132;7.178;2022-10-31T08:55:33;99089.03;;;21.95;81.98
62164;BME280;48149;51.132;7.178;2022-10-31T08:57:59;99090.19;;;22.27;81.77
62164;BME280;48149;51.132;7.178;2022-10-31T09:00:24;99090.25;;;22.17;82.21
62164;BME280;48149;51.132;7.178;2022-10-31T09:03:00;99089.34;;;21.83;86.42
62164;BME280;48149;51.132;7.178;2022-10-31T09:05:25;99086.66;;;22.71;77.97
62164;BME280;48149;51.132;7.178;2022-10-31T09:07:51;99083.81;;;21.69;83.83
62164;BME280;48149;51.132;7.178;2022-10-31T09:10:19;99083.69;;;22.72;79.75
62164;BME280;48149;51.132;7.178;2022-10-31T09:12:45;99081.41;;;23.66;72.73
62164;BME280;48149;51.132;7.178;2022-10-31T09:15:11;99085.47;;;22.09;82.13
62164;BME280;48149;51.132;7.178;2022-10-31T09:17:36;99081.91;;;22.63;79.08
62164;BME280;48149;51.132;7.178;2022-10-31T09:20:02;99082.31;;;22.80;79.25
62164;BME280;48149;51.132;7.178;2022-10-31T09:22:27;99085.22;;;23.07;76.29
62164;BME280;48149;51.132;7.178;2022-10-31T09:24:52;99086.53;;;22.52;79.71
62164;BME280;48149;51.132;7.178;2022-10-31T09:27:17;99084.13;;;22.51;81.42
62164;BME280;48149;51.132;7.178;2022-10-31T09:29:42;99084.47;;;23.30;73.76
62164;BME280;48149;51.132;7.178;2022-10-31T09:32:08;99083.00;;;22.57;79.08
62164;BME280;48149;51.132;7.178;2022-10-31T09:34:34;99082.56;;;22.45;80.83
62164;BME280;48149;51.132;7.178;2022-10-31T09:36:59;99074.50;;;22.21;80.83
62164;BME280;48149;51.132;7.178;2022-10-31T09:39:24;99079.22;;;22.68;77.96
62164;BME280;48149;51.132;7.178;2022-10-31T09:44:24;99075.47;;;22.69;79.62
62164;BME280;48149;51.132;7.178;2022-10-31T09:52:22;99067.56;;;22.54;78.84
62164;BME280;48149;51.132;7.178;2022-10-31T09:54:56;99061.78;;;23.52;73.42
62164;BME280;48149;51.132;7.178;2022-10-31T09:57:25;99055.75;;;22.31;80.71
62164;BME280;48149;51.132;7.178;2022-10-31T09:59:52;99053.84;;;22.31;79.63
62164;BME280;48149;51.132;7.178;2022-10-31T10:07:32;99054.81;;;24.63;65.49
62164;BME280;48149;51.132;7.178;2022-10-31T10:10:00;99053.53;;;24.92;65.23
62164;BME280;48149;51.132;7.178;2022-10-31T10:12:46;99047.44;;;26.63;55.89
62164;BME280;48149;51.132;7.178;2022-10-31T10:20:33;99033.59;;;29.44;47.13
62164;BME280;48149;51.132;7.178;2022-10-31T10:26:01;99026.91;;;28.83;48.10
62164;BME280;48149;51.132;7.178;2022-10-31T10:28:20;99027.41;;;28.76;48.97
62164;BME280;48149;51.132;7.178;2022-10-31T10:31:08;99015.94;;;27.98;47.80
62164;BME280;48149;51.132;7.178;2022-10-31T10:33:35;99014.94;;;29.01;47.40
62164;BME280;48149;51.132;7.178;2022-10-31T10:36:21;99005.28;;;30.78;41.14
62164;BME280;48149;51.132;7.178;2022-10-31T10:41:20;99000.81;;;31.42;39.53
62164;BME280;48149;51.132;7.178;2022-10-31T10:43:49;98996.50;;;30.81;38.89
62164;BME280;48149;51.132;7.178;2022-10-31T10:49:13;98995.94;;;30.30;40.81
62164;BME280;48149;51.132;7.178;2022-10-31T10:51:43;98988.69;;;29.69;42.73
62164;BME280;48149;51.132;7.178;2022-10-31T10:54:29;98992.69;;;32.65;36.48
62164;BME280;48149;51.132;7.178;2022-10-31T10:57:13;98984.97;;;32.99;37.56
62164;BME280;48149;51.132;7.178;2022-10-31T10:59:42;98974.25;;;32.28;36.80
62164;BME280;48149;51.132;7.178;2022-10-31T11:02:19;98963.75;;;30.25;39.84
62164;BME280;48149;51.132;7.178;2022-10-31T11:04:50;98972.09;;;27.64;48.89
62164;BME280;48149;51.132;7.178;2022-10-31T11:07:16;98969.88;;;27.00;50.30
62164;BME280;48149;51.132;7.178;2022-10-31T11:09:41;98976.38;;;25.93;54.64
62164;BME280;48149;51.132;7.178;2022-10-31T11:12:07;98961.59;;;25.60;56.17
62164;BME280;48149;51.132;7.178;2022-10-31T11:14:35;98954.50;;;26.53;52.84
62164;BME280;48149;51.132;7.178;2022-10-31T11:22:49;98936.97;;;26.56;53.63
62164;BME280;48149;51.132;7.178;2022-10-31T11:25:26;98947.50;;;25.41;54.48
62164;BME280;48149;51.132;7.178;2022-10-31T11:28:01;98943.41;;;25.21;55.78
62164;BME280;48149;51.132;7.178;2022-10-31T11:30:27;98944.34;;;25.53;55.55
62164;BME280;48149;51.132;7.178;2022-10-31T11:32:52;98950.97;;;27.31;52.75
62164;BME280;48149;51.132;7.178;2022-10-31T11:35:20;98946.34;;;27.06;48.39
62164;BME280;48149;51.132;7.178;2022-10-31T11:37:48;98942.66;;;27.76;46.14
62164;BME280;48149;51.132;7.178;2022-10-31T11:40:15;98937.44;;;27.79;46.48
62164;BME280;48149;51.132;7.178;2022-10-31T11:42:43;98929.66;;;27.52;48.50
62164;BME280;48149;51.132;7.178;2022-10-31T11:47:42;98937.19;;;29.11;43.97
62164;BME280;48149;51.132;7.178;2022-10-31T11:50:11;98937.63;;;28.38;45.09
62164;BME280;48149;51.132;7.178;2022-10-31T11:52:43;98925.75;;;28.85;44.30
62164;BME280;48149;51.132;7.178;2022-10-31T11:57:48;98923.31;;;27.91;47.95
62164;BME280;48149;51.132;7.178;2022-10-31T12:02:51;98905.06;;;27.11;48.26
62164;BME280;48149;51.132;7.178;2022-10-31T12:05:24;98899.28;;;26.69;49.05
62164;BME280;48149;51.132;7.178;2022-10-31T12:07:56;98895.72;;;28.20;46.69
62164;BME280;48149;51.132;7.178;2022-10-31T12:10:21;98885.66;;;27.31;49.26
62164;BME280;48149;51.132;7.178;2022-10-31T12:15:29;98878.09;;;27.50;44.90
62164;BME280;48149;51.132;7.178;2022-10-31T12:38:53;98849.50;;;25.48;51.21
62164;BME280;48149;51.132;7.178;2022-10-31T12:44:10;98846.25;;;26.92;48.64
62164;BME280;48149;51.132;7.178;2022-10-31T12:46:55;98848.53;;;26.59;51.56
62164;BME280;48149;51.132;7.178;2022-10-31T12:49:37;98830.38;;;25.86;53.02
62164;BME280;48149;51.132;7.178;2022-10-31T12:59:48;98811.66;;;26.25;50.41
62164;BME280;48149;51.132;7.178;2022-10-31T13:04:59;98802.94;;;26.20;50.98
62164;BME280;48149;51.132;7.178;2022-10-31T13:07:31;98791.44;;;25.44;52.64
62164;BME280;48149;51.132;7.178;2022-10-31T13:10:01;98783.25;;;25.93;53.08
62164;BME280;48149;51.132;7.178;2022-10-31T13:12:29;98781.22;;;25.68;52.37
62164;BME280;48149;51.132;7.178;2022-10-31T13:14:57;98771.75;;;25.48;52.95
62164;BME280;48149;51.132;7.178;2022-10-31T13:19:53;98763.66;;;25.93;51.03
62164;BME280;48149;51.132;7.178;2022-10-31T13:22:22;98761.81;;;26.02;52.47
62164;BME280;48149;51.132;7.178;2022-10-31T13:25:03;98761.09;;;25.88;53.92
62164;BME280;48149;51.132;7.178;2022-10-31T13:28:21;98743.66;;;26.08;52.66
62164;BME280;48149;51.132;7.178;2022-10-31T13:30:25;98740.59;;;25.53;53.02
62164;BME280;48149;51.132;7.178;2022-10-31T13:32:59;98740.03;;;25.42;55.59
62164;BME280;48149;51.132;7.178;2022-10-31T13:35:29;98733.41;;;25.39;54.69
62164;BME280;48149;51.132;7.178;2022-10-31T13:38:09;98737.66;;;25.40;53.36
62164;BME280;48149;51.132;7.178;2022-10-31T13:40:45;98726.44;;;26.65;49.56
62164;BME280;48149;51.132;7.178;2022-10-31T13:43:28;98715.50;;;26.27;53.45
62164;BME280;48149;51.132;7.178;2022-10-31T13:45:54;98710.81;;;25.10;56.99
62164;BME280;48149;51.132;7.178;2022-10-31T13:48:33;98710.25;;;26.22;50.43
62164;BME280;48149;51.132;7.178;2022-10-31T13:50:59;98711.72;;;27.31;48.44
62164;BME280;48149;51.132;7.178;2022-10-31T13:56:05;98698.78;;;28.80;44.07
62164;BME280;48149;51.132;7.178;2022-10-31T13:58:37;98701.91;;;27.82;45.59
62164;BME280;48149;51.132;7.178;2022-10-31T14:03:37;98706.06;;;27.16;47.90
62164;BME280;48149;51.132;7.178;2022-10-31T14:06:03;98709.53;;;27.08;47.52
62164;BME280;48149;51.132;7.178;2022-10-31T14:08:29;98709.53;;;26.56;48.57
62164;BME280;48149;51.132;7.178;2022-10-31T14:10:58;98708.88;;;25.94;51.44
62164;BME280;48149;51.132;7.178;2022-10-31T14:13:34;98705.91;;;25.95;50.52
62164;BME280;48149;51.132;7.178;2022-10-31T14:16:27;98696.38;;;25.19;53.11
62164;BME280;48149;51.132;7.178;2022-10-31T14:19:16;98695.28;;;26.30;51.00
62164;BME280;48149;51.132;7.178;2022-10-31T14:21:43;98692.84;;;25.32;54.44
62164;BME280;48149;51.132;7.178;2022-10-31T14:26:53;98677.28;;;25.43;52.65
62164;BME280;48149;51.132;7.178;2022-10-31T14:29:27;98681.53;;;25.13;52.00
62164;BME280;48149;51.132;7.178;2022-10-31T14:34:28;98670.63;;;24.29;56.76
62164;BME280;48149;51.132;7.178;2022-10-31T14:37:02;98673.91;;;25.29;53.74
62164;BME280;48149;51.132;7.178;2022-10-31T14:39:42;98631.63;;;24.01;57.39
62164;BME280;48149;51.132;7.178;2022-10-31T14:42:15;98637.94;;;24.19;57.62
62164;BME280;48149;51.132;7.178;2022-10-31T14:47:15;98652.50;;;23.99;57.16
62164;BME280;48149;51.132;7.178;2022-10-31T14:49:58;98639.84;;;24.05;59.17
62164;BME280;48149;51.132;7.178;2022-10-31T14:52:29;98635.13;;;24.37;56.45
62164;BME280;48149;51.132;7.178;2022-10-31T14:54:55;98637.47;;;24.17;58.81
62164;BME280;48149;51.132;7.178;2022-10-31T14:59:57;98633.38;;;24.33;57.58
62164;BME280;48149;51.132;7.178;2022-10-31T15:02:28;98635.53;;;24.89;55.56
62164;BME280;48149;51.132;7.178;2022-10-31T15:04:55;98634.56;;;24.27;56.18